Time;durP1;ratioP1;P1;durP2;ratioP2;P2;SDS_P1;SDS_P2;PMS_P1;PMS_P2;Temp;Humidity;BMP_temperature;BMP_pressure;BME280_temperature;BME280_humidity;BME280_pressure;Samples;Min_cycle;Max_cycle;Signal;HPM_P1;HPM_P2
2021/05/08 00:00:36;;;;;;;6.60;5.50;;;;;;;4.77;70.56;98774.20;2172592;82;21122;-79
2021/05/08 00:03:39;;;;;;;13.27;5.97;;;;;;;4.77;70.57;98783.25;2172669;82;21444;-79
2021/05/08 00:06:40;;;;;;;7.00;5.27;;;;;;;4.79;70.30;98792.35;2172560;82;21154;-79
2021/05/08 00:09:41;;;;;;;9.07;5.83;;;;;;;4.80;70.32;98788.94;2172624;82;21110;-78
2021/05/08 00:12:43;;;;;;;7.13;5.97;;;;;;;4.79;70.32;98792.35;2172795;82;21114;-77
2021/05/08 00:15:44;;;;;;;6.80;5.20;;;;;;;4.79;70.45;98788.05;2172747;82;21103;-78
2021/05/08 00:18:45;;;;;;;8.60;5.30;;;;;;;4.78;70.43;98797.05;2172833;82;21118;-78
2021/05/08 00:21:46;;;;;;;9.77;6.60;;;;;;;4.74;70.76;98797.36;2173020;82;21110;-78
2021/05/08 00:24:47;;;;;;;7.80;6.10;;;;;;;4.73;70.76;98800.78;2172588;82;21118;-78
2021/05/08 00:27:48;;;;;;;7.33;5.97;;;;;;;4.73;70.94;98805.07;2172790;82;21427;-78
2021/05/08 00:30:49;;;;;;;7.97;5.67;;;;;;;4.70;71.07;98806.26;2172786;82;21125;-79
2021/05/08 00:33:50;;;;;;;10.57;6.37;;;;;;;4.67;71.03;98808.73;2172607;82;21087;-79
2021/05/08 00:36:51;;;;;;;7.43;5.57;;;;;;;4.63;71.35;98810.34;2166749;81;21261;-78
2021/05/08 00:39:53;;;;;;;7.67;5.73;;;;;;;4.63;71.58;98814.22;2162749;82;21241;-79
2021/05/08 00:42:54;;;;;;;11.57;6.90;;;;;;;4.59;71.58;98815.36;2162586;82;21154;-78
2021/05/08 00:45:55;;;;;;;8.07;6.50;;;;;;;4.56;71.93;98819.13;2162530;82;21174;-79
2021/05/08 00:48:56;;;;;;;9.63;6.80;;;;;;;4.51;71.84;98814.20;2162479;82;21241;-79
2021/05/08 00:51:57;;;;;;;11.73;7.63;;;;;;;4.48;71.81;98821.44;2162614;82;21126;-78
2021/05/08 00:54:58;;;;;;;10.83;8.00;;;;;;;4.46;71.94;98820.09;2162432;82;21512;-78
2021/05/08 00:58:00;;;;;;;10.63;8.03;;;;;;;4.47;72.49;98837.77;2162494;82;21252;-79
2021/05/08 01:01:01;;;;;;;13.70;8.87;;;;;;;4.45;72.27;98829.09;2162651;82;21229;-78
2021/05/08 01:04:02;;;;;;;12.53;9.20;;;;;;;4.44;72.32;98830.79;2162410;82;21241;-79
2021/05/08 01:07:03;;;;;;;14.17;8.20;;;;;;;4.42;72.45;98845.36;2162524;82;21277;-79
2021/05/08 01:10:04;;;;;;;9.67;7.47;;;;;;;4.39;72.17;98836.21;2162449;82;21083;-79
2021/05/08 01:13:05;;;;;;;11.03;7.10;;;;;;;4.40;72.56;98841.84;2162476;82;21127;-79
2021/05/08 01:16:06;;;;;;;9.20;7.10;;;;;;;4.38;72.55;98833.57;2162614;82;21585;-79
2021/05/08 01:19:07;;;;;;;10.60;7.07;;;;;;;4.39;72.59;98850.42;2162524;82;21119;-79
2021/05/08 01:22:08;;;;;;;10.30;8.27;;;;;;;4.36;72.70;98843.85;2162986;82;21131;-79
2021/05/08 01:25:09;;;;;;;18.07;10.00;;;;;;;4.38;72.54;98849.95;2162509;82;21115;-79
2021/05/08 01:28:10;;;;;;;15.93;8.80;;;;;;;4.39;72.95;98858.17;2162779;82;21242;-79
2021/05/08 01:31:11;;;;;;;13.10;9.17;;;;;;;4.36;73.02;98855.89;2162505;82;21135;-78
2021/05/08 01:34:12;;;;;;;12.93;10.33;;;;;;;4.35;73.14;98858.01;2162522;82;21270;-79
2021/05/08 01:37:14;;;;;;;10.93;9.30;;;;;;;4.33;73.40;98866.97;2169177;81;21134;-79
2021/05/08 01:40:15;;;;;;;11.70;8.73;;;;;;;4.33;73.27;98880.30;2172712;82;21398;-79
2021/05/08 01:43:16;;;;;;;9.97;8.40;;;;;;;4.31;73.63;98888.00;2172808;82;21118;-78
2021/05/08 01:46:17;;;;;;;8.23;7.37;;;;;;;4.28;73.67;98880.13;2172593;82;21174;-79
2021/05/08 01:49:18;;;;;;;14.00;8.50;;;;;;;4.30;73.26;98875.89;2172813;82;21087;-78
2021/05/08 01:52:19;;;;;;;9.37;7.57;;;;;;;4.33;73.32;98879.89;2172876;82;21391;-79
2021/05/08 01:55:20;;;;;;;10.93;7.90;;;;;;;4.32;73.06;98884.59;2172747;82;21154;-79
2021/05/08 01:58:21;;;;;;;9.43;7.83;;;;;;;4.34;73.23;98893.72;2172641;82;21123;-79
2021/05/08 02:01:22;;;;;;;10.23;8.47;;;;;;;4.31;72.98;98890.99;2172672;82;21150;-78
2021/05/08 02:04:23;;;;;;;10.27;7.40;;;;;;;4.34;73.15;98895.02;2172978;82;21237;-78
2021/05/08 02:07:24;;;;;;;9.90;7.57;;;;;;;4.34;73.10;98889.44;2172544;81;21142;-78
2021/05/08 02:10:25;;;;;;;9.27;7.13;;;;;;;4.33;72.90;98895.39;2172610;82;21142;-78
2021/05/08 02:13:28;;;;;;;8.80;7.40;;;;;;;4.34;73.21;98902.36;2172572;82;21368;-79
2021/05/08 02:16:29;;;;;;;11.50;7.47;;;;;;;4.31;73.19;98902.20;2172642;82;21119;-79
2021/05/08 02:19:30;;;;;;;9.17;7.93;;;;;;;4.32;73.06;98906.55;2172536;82;21131;-78
2021/05/08 02:22:31;;;;;;;10.33;6.97;;;;;;;4.34;73.15;98904.94;2172864;82;21360;-79
2021/05/08 02:25:32;;;;;;;8.70;7.10;;;;;;;4.32;73.04;98913.02;2172603;82;21289;-79
2021/05/08 02:28:33;;;;;;;10.13;6.80;;;;;;;4.29;73.48;98919.77;2172701;82;21130;-79
2021/05/08 02:31:34;;;;;;;8.13;7.17;;;;;;;4.29;73.15;98914.60;2173017;82;21138;-79
2021/05/08 02:34:35;;;;;;;10.00;7.63;;;;;;;4.32;73.19;98914.72;2172677;82;21119;-78
2021/05/08 02:37:36;;;;;;;14.97;8.87;;;;;;;4.35;73.14;98919.63;2177229;81;21138;-79
2021/05/08 02:40:37;;;;;;;14.60;9.30;;;;;;;4.33;73.64;98925.11;2179743;81;21118;-79
2021/05/08 02:43:38;;;;;;;14.23;9.37;;;;;;;4.31;73.50;98925.47;2179829;81;21126;-79
2021/05/08 02:46:39;;;;;;;12.23;8.50;;;;;;;4.35;73.48;98933.84;2179716;81;21149;-79
2021/05/08 02:49:40;;;;;;;9.10;7.00;;;;;;;4.36;73.30;98932.13;2179815;81;21133;-80
2021/05/08 02:52:41;;;;;;;8.67;6.93;;;;;;;4.35;73.65;98946.75;2179838;81;21118;-80
2021/05/08 02:55:43;;;;;;;7.87;6.77;;;;;;;4.33;73.71;98944.49;2179948;82;21126;-79
2021/05/08 02:58:44;;;;;;;8.93;7.43;;;;;;;4.33;73.70;98948.37;2180026;81;21396;-79
2021/05/08 03:01:45;;;;;;;9.40;6.77;;;;;;;4.35;73.74;98953.22;2179987;81;21395;-78
2021/05/08 03:04:46;;;;;;;8.77;7.47;;;;;;;4.35;73.54;98955.80;2179989;81;21102;-79
2021/05/08 03:07:47;;;;;;;8.37;6.60;;;;;;;4.37;73.78;98963.61;2180040;81;21197;-79
2021/05/08 03:10:48;;;;;;;9.53;6.80;;;;;;;4.37;73.48;98960.62;2180162;81;21264;-79
2021/05/08 03:13:49;;;;;;;7.10;5.63;;;;;;;4.40;73.37;98963.31;2180256;81;21245;-81
2021/05/08 03:16:50;;;;;;;10.60;7.20;;;;;;;4.88;83.44;98968.95;2180181;82;21248;-79
2021/05/08 03:19:51;;;;;;;11.00;6.17;;;;;;;7.00;68.61;98970.28;2179943;81;21396;-79
2021/05/08 03:22:52;;;;;;;8.37;5.80;;;;;;;6.09;68.43;98977.48;2179831;81;21395;-78
2021/05/08 03:25:53;;;;;;;7.13;6.13;;;;;;;5.53;69.84;98981.63;2179862;81;21157;-79
2021/05/08 03:28:54;;;;;;;10.50;6.50;;;;;;;5.20;70.57;98986.91;2179969;81;21075;-79
2021/05/08 03:31:55;;;;;;;8.00;5.53;;;;;;;4.97;71.10;98985.68;2179816;81;21392;-79
2021/05/08 03:34:56;;;;;;;6.47;5.70;;;;;;;4.83;71.61;98988.59;2179808;81;21403;-80
2021/05/08 03:37:57;;;;;;;6.27;4.90;;;;;;;4.70;71.81;98993.72;2167823;81;21277;-79
2021/05/08 03:40:58;;;;;;;11.63;9.27;;;;;;;4.58;72.51;98999.73;2162335;82;21110;-79
2021/05/08 03:44:00;;;;;;;7.87;7.07;;;;;;;4.50;72.89;99007.61;2162503;82;21130;-78
2021/05/08 03:47:01;;;;;;;11.80;7.20;;;;;;;4.50;72.65;99007.61;2162769;82;21269;-80
2021/05/08 03:50:02;;;;;;;7.10;6.40;;;;;;;4.50;72.81;99008.90;2162539;82;21087;-80
2021/05/08 03:53:03;;;;;;;7.43;6.03;;;;;;;4.50;72.67;99011.48;2162524;82;21237;-79
2021/05/08 03:56:04;;;;;;;6.67;5.40;;;;;;;4.47;72.80;99017.01;2162430;82;21511;-80
2021/05/08 03:59:05;;;;;;;6.93;6.00;;;;;;;4.51;72.75;99019.71;2162519;82;21123;-79
2021/05/08 04:02:06;;;;;;;6.43;5.63;;;;;;;4.54;72.88;99019.83;2162453;82;21476;-80
2021/05/08 04:05:07;;;;;;;7.70;5.80;;;;;;;4.56;72.58;99024.64;2162237;82;21083;-80
2021/05/08 04:08:08;;;;;;;5.80;4.83;;;;;;;4.59;72.54;99029.93;2162218;82;21134;-79
2021/05/08 04:11:09;;;;;;;6.40;5.60;;;;;;;4.60;72.50;99036.45;2162364;82;21233;-80
2021/05/08 04:14:11;;;;;;;5.50;4.97;;;;;;;4.59;72.55;99035.98;2162686;82;21132;-80
2021/05/08 04:17:12;;;;;;;6.97;5.33;;;;;;;4.66;72.49;99044.45;2162372;82;21131;-79
2021/05/08 04:20:13;;;;;;;6.23;5.20;;;;;;;4.70;72.27;99040.27;2162459;82;21241;-79
2021/05/08 04:23:14;;;;;;;7.67;6.20;;;;;;;4.79;71.99;99056.13;2162839;82;21107;-80
2021/05/08 04:26:15;;;;;;;6.33;5.73;;;;;;;4.85;71.60;99048.61;2162350;82;21282;-79
2021/05/08 04:29:17;;;;;;;7.37;6.10;;;;;;;4.94;71.29;99060.59;2162383;82;21245;-79
2021/05/08 04:32:18;;;;;;;8.00;7.20;;;;;;;5.01;71.10;99064.28;2162459;82;21221;-80
2021/05/08 04:35:24;;;;;;;7.40;6.10;;;;;;;4.98;70.75;99066.34;2140745;82;21541;-79
2021/05/08 04:38:26;;;;;;;7.73;5.90;;;;;;;5.00;71.04;99070.28;2175484;81;21134;-80
2021/05/08 04:41:27;;;;;;;7.17;5.80;;;;;;;5.12;70.76;99068.15;2180081;81;21126;-78
2021/05/08 04:44:28;;;;;;;6.63;5.77;;;;;;;5.53;73.65;99073.97;2179771;82;21114;-78
2021/05/08 04:47:29;;;;;;;7.03;5.10;;;;;;;6.57;67.73;99074.06;2179703;81;21567;-78
2021/05/08 04:50:30;;;;;;;7.63;5.00;;;;;;;6.16;67.29;99073.16;2180078;82;21130;-80
2021/05/08 04:53:32;;;;;;;5.70;4.97;;;;;;;6.49;69.22;99076.83;2181243;81;21220;-79
2021/05/08 04:56:33;;;;;;;6.17;4.73;;;;;;;6.67;67.47;99076.52;2180728;81;21122;-79
2021/05/08 04:59:53;;;;;;;8.27;4.80;;;;;;;7.18;66.05;99073.75;2180738;81;21241;-81
2021/05/08 05:02:55;;;;;;;4.93;4.13;;;;;;;7.41;64.23;99084.38;2179966;81;21223;-78
2021/05/08 05:05:58;;;;;;;7.70;4.57;;;;;;;7.54;64.42;99086.47;2179924;81;21276;-79
2021/05/08 05:08:59;;;;;;;9.40;4.60;;;;;;;7.40;62.84;99089.10;2180027;81;21102;-79
2021/05/08 05:12:00;;;;;;;6.50;4.37;;;;;;;7.16;64.24;99081.91;2179817;81;21086;-80
2021/05/08 05:15:01;;;;;;;5.17;4.60;;;;;;;7.06;63.67;99096.75;2179893;81;21130;-80
2021/05/08 05:18:02;;;;;;;7.17;4.20;;;;;;;6.83;64.08;99089.55;2179736;81;21387;-80
2021/05/08 05:21:03;;;;;;;4.83;3.80;;;;;;;6.66;64.51;99089.03;2179852;81;21379;-79
2021/05/08 05:24:04;;;;;;;9.63;4.80;;;;;;;6.59;64.75;99090.97;2179803;81;21126;-81
2021/05/08 05:27:05;;;;;;;6.83;5.07;;;;;;;6.55;64.88;99107.27;2180316;81;21110;-80
2021/05/08 05:30:06;;;;;;;11.20;4.90;;;;;;;6.48;64.92;99115.69;2180719;81;21114;-79
2021/05/08 05:33:07;;;;;;;4.43;3.87;;;;;;;6.41;65.11;99109.83;2180521;81;21074;-77
2021/05/08 05:36:09;;;;;;;6.50;4.33;;;;;;;6.43;65.40;99113.36;2179990;81;21078;-80
2021/05/08 05:39:10;;;;;;;6.77;4.60;;;;;;;6.39;64.66;99106.77;2163983;81;21143;-80
2021/05/08 05:42:11;;;;;;;8.13;4.87;;;;;;;6.55;65.01;99117.22;2162323;82;21269;-80
2021/05/08 05:45:13;;;;;;;8.10;5.80;;;;;;;6.93;64.56;99121.02;2162293;82;21396;-79
2021/05/08 05:48:14;;;;;;;7.20;5.20;;;;;;;7.27;64.44;99123.34;2162397;82;21272;-79
2021/05/08 05:51:15;;;;;;;7.87;5.27;;;;;;;7.33;63.51;99117.91;2162261;82;21555;-80
2021/05/08 05:54:17;;;;;;;6.47;5.43;;;;;;;7.45;63.68;99118.69;2162596;82;21123;-78
2021/05/08 05:57:18;;;;;;;5.70;4.57;;;;;;;7.45;63.68;99118.69;2162126;82;21416;-79
2021/05/08 06:00:19;;;;;;;7.67;5.90;;;;;;;7.60;63.68;99128.20;2162175;82;21286;-79
2021/05/08 06:03:20;;;;;;;9.87;6.57;;;;;;;7.67;62.40;99131.44;2162365;82;21127;-80
2021/05/08 06:06:22;;;;;;;6.87;5.53;;;;;;;7.88;63.16;99129.88;2162409;82;21285;-79
2021/05/08 06:09:25;;;;;;;8.60;5.93;;;;;;;8.10;62.16;99132.63;2162325;82;21515;-80
2021/05/08 06:12:26;;;;;;;12.60;6.57;;;;;;;8.21;61.51;99129.88;2162596;82;21254;-79
2021/05/08 06:15:27;;;;;;;9.20;5.77;;;;;;;8.31;61.86;99134.47;2162554;82;21138;-80
2021/05/08 06:18:28;;;;;;;9.00;6.13;;;;;;;8.41;60.74;99134.73;2162430;82;21249;-80
2021/05/08 06:21:29;;;;;;;9.77;6.10;;;;;;;8.68;61.00;99140.64;2162369;82;21115;-80
2021/05/08 06:24:31;;;;;;;8.37;5.40;;;;;;;8.75;60.32;99137.34;2162481;82;21856;-80
2021/05/08 06:27:32;;;;;;;10.00;6.00;;;;;;;8.73;60.28;99143.36;2162450;82;21261;-80
2021/05/08 06:30:33;;;;;;;9.27;5.33;;;;;;;8.78;59.70;99147.83;2162546;82;21225;-80
2021/05/08 06:33:34;;;;;;;10.07;5.90;;;;;;;8.76;60.16;99148.21;2162390;82;21234;-80
2021/05/08 06:36:35;;;;;;;9.27;4.73;;;;;;;8.84;59.66;99147.97;2162504;82;21120;-80
2021/05/08 06:39:36;;;;;;;8.33;5.13;;;;;;;8.79;59.39;99146.98;2178830;81;21171;-80
2021/05/08 06:42:37;;;;;;;10.00;6.20;;;;;;;8.90;58.85;99145.51;2179125;81;21502;-79
2021/05/08 06:45:38;;;;;;;10.10;6.07;;;;;;;8.83;59.57;99149.23;2179743;81;21082;-80
2021/05/08 06:48:39;;;;;;;8.33;5.20;;;;;;;9.08;58.79;99146.35;2179946;81;21118;-79
2021/05/08 06:51:40;;;;;;;5.77;4.77;;;;;;;9.23;58.60;99147.11;2179762;81;21113;-79
2021/05/08 06:54:41;;;;;;;8.27;5.40;;;;;;;9.68;56.99;99142.02;2179660;81;21078;-80
2021/05/08 06:57:43;;;;;;;6.87;4.70;;;;;;;10.15;56.21;99148.13;2179817;82;21091;-80
2021/05/08 07:00:44;;;;;;;6.30;4.67;;;;;;;10.24;54.62;99138.33;2179867;81;21109;-81
2021/05/08 07:03:45;;;;;;;8.67;6.00;;;;;;;10.44;54.90;99137.40;2179868;81;21110;-80
2021/05/08 07:06:46;;;;;;;7.33;4.80;;;;;;;10.77;53.55;99130.11;2180081;81;21516;-81
2021/05/08 07:09:47;;;;;;;10.00;5.20;;;;;;;11.10;53.24;99134.95;2179742;81;21106;-81
2021/05/08 07:12:48;;;;;;;6.87;5.47;;;;;;;11.41;53.13;99131.05;2179926;81;21103;-80
2021/05/08 07:15:49;;;;;;;5.75;4.28;;;;;;;11.63;50.88;99142.66;2180485;81;21126;-80
2021/05/08 07:18:51;;;;;;;5.45;4.42;;;;;;;11.59;53.23;99133.45;2180605;81;21406;-80
2021/05/08 07:21:52;;;;;;;6.87;4.10;;;;;;;11.61;50.25;99131.73;2180649;81;21105;-80
2021/05/08 07:24:53;;;;;;;6.25;4.33;;;;;;;11.36;49.57;99135.34;2180843;81;21114;-79
2021/05/08 07:27:54;;;;;;;5.70;3.95;;;;;;;11.21;51.28;99129.88;2180872;81;21521;-80
2021/05/08 07:30:55;;;;;;;9.95;4.00;;;;;;;11.46;51.86;99132.42;2180529;82;21245;-79
2021/05/08 07:33:56;;;;;;;7.20;4.45;;;;;;;11.46;50.72;99132.00;2180684;82;21141;-80
2021/05/08 07:36:57;;;;;;;8.38;3.87;;;;;;;11.61;50.22;99131.73;2179675;81;21129;-79
2021/05/08 07:39:58;;;;;;;4.60;3.20;;;;;;;11.66;49.16;99144.00;2162027;82;21122;-80
2021/05/08 07:42:59;;;;;;;5.55;3.58;;;;;;;11.95;48.09;99140.45;2163384;82;21143;-80
2021/05/08 07:46:00;;;;;;;6.30;3.30;;;;;;;12.23;45.03;99135.11;2163038;82;21162;-80
2021/05/08 07:49:01;;;;;;;9.15;3.65;;;;;;;11.99;47.74;99130.47;2162897;82;21511;-80
2021/05/08 07:52:03;;;;;;;5.42;3.10;;;;;;;11.70;47.11;99134.03;2162802;82;21408;-80
2021/05/08 07:55:04;;;;;;;6.22;3.30;;;;;;;11.46;47.03;99145.06;2163067;82;21237;-81
2021/05/08 07:58:05;;;;;;;4.53;3.05;;;;;;;10.91;47.87;99142.50;2164268;82;21229;-80
2021/05/08 08:01:06;;;;;;;9.13;3.37;;;;;;;10.51;48.99;99149.27;2163834;82;21122;-81
2021/05/08 08:04:09;;;;;;;7.00;4.07;;;;;;;10.37;48.48;99149.86;2163066;82;21241;-81
2021/05/08 08:07:10;;;;;;;4.53;3.70;;;;;;;10.34;49.54;99149.80;2163053;82;21277;-79
2021/05/08 08:10:11;;;;;;;8.97;3.70;;;;;;;10.52;49.64;99156.67;2163190;82;21269;-79
2021/05/08 08:13:13;;;;;;;6.12;3.83;;;;;;;10.79;49.42;99155.81;2163010;82;21237;-80
2021/05/08 08:16:14;;;;;;;4.80;2.77;;;;;;;11.30;47.64;99151.38;2163352;82;21130;-79
2021/05/08 08:19:15;;;;;;;5.03;2.72;;;;;;;11.90;46.95;99144.75;2162935;82;21260;-78
2021/05/08 08:22:16;;;;;;;3.90;2.92;;;;;;;12.06;43.88;99151.03;2162691;82;21245;-80
2021/05/08 08:25:17;;;;;;;3.67;2.58;;;;;;;12.05;43.72;99146.66;2162691;82;21131;-80
2021/05/08 08:28:18;;;;;;;4.28;3.10;;;;;;;11.54;46.17;99164.77;2162657;82;21551;-79
2021/05/08 08:31:19;;;;;;;10.13;4.12;;;;;;;10.85;48.68;99171.59;2162718;82;21114;-82
2021/05/08 08:34:21;;;;;;;5.70;3.10;;;;;;;10.27;50.01;99166.20;2162840;82;21131;-82
2021/05/08 08:37:22;;;;;;;4.05;2.58;;;;;;;10.22;50.93;99175.25;2162589;82;21107;-81
2021/05/08 08:40:23;;;;;;;3.30;2.62;;;;;;;10.45;49.83;99166.12;2162558;82;21241;-81
2021/05/08 08:43:25;;;;;;;6.07;3.83;;;;;;;10.78;50.30;99170.16;2162457;82;21126;-79
2021/05/08 08:46:27;;;;;;;4.65;2.65;;;;;;;11.17;49.41;99163.36;2162602;82;21467;-80
2021/05/08 08:49:29;;;;;;;7.72;3.37;;;;;;;11.33;45.87;99172.33;2162522;82;21225;-80
2021/05/08 08:52:31;;;;;;;5.40;2.80;;;;;;;11.26;46.17;99170.45;2162113;82;21241;-80
2021/05/08 08:55:32;;;;;;;3.02;2.50;;;;;;;11.56;44.96;99172.20;2162427;82;21236;-80
2021/05/08 08:58:35;;;;;;;3.30;2.40;;;;;;;12.29;46.21;99164.39;2162444;82;21087;-80
2021/05/08 09:01:36;;;;;;;7.28;2.42;;;;;;;12.52;44.54;99169.41;2162540;82;21143;-79
2021/05/08 09:04:37;;;;;;;6.03;4.15;;;;;;;12.86;43.49;99151.36;2162395;82;21558;-80
2021/05/08 09:07:38;;;;;;;4.50;2.70;;;;;;;12.47;44.04;99155.83;2162561;82;21507;-81
2021/05/08 09:10:40;;;;;;;4.50;2.20;;;;;;;12.01;42.62;99182.38;2162546;82;21111;-80
2021/05/08 09:13:41;;;;;;;5.83;2.55;;;;;;;11.57;42.97;99178.31;2162444;82;21237;-81
2021/05/08 09:16:44;;;;;;;3.55;2.70;;;;;;;11.41;42.26;99190.30;2162658;82;21527;-80
2021/05/08 09:19:46;;;;;;;3.05;2.30;;;;;;;11.19;44.30;99189.08;2162518;82;21111;-79
2021/05/08 09:22:47;;;;;;;3.67;2.15;;;;;;;11.14;45.70;99189.01;2162618;82;21237;-79
2021/05/08 09:25:48;;;;;;;3.80;2.55;;;;;;;11.61;44.09;99180.11;2162499;82;21115;-79
2021/05/08 09:28:49;;;;;;;4.33;2.70;;;;;;;12.01;44.68;99176.27;2162399;82;21261;-79
2021/05/08 09:31:50;;;;;;;4.20;2.60;;;;;;;12.09;44.51;99161.10;2162633;82;21253;-80
2021/05/08 09:34:51;;;;;;;4.65;2.30;;;;;;;12.05;43.41;99169.78;2162508;82;21237;-80
2021/05/08 09:37:53;;;;;;;2.47;2.20;;;;;;;11.60;41.65;99186.20;2165071;81;21138;-80
2021/05/08 09:40:54;;;;;;;5.28;2.77;;;;;;;10.75;47.50;99197.52;2179802;81;21419;-80
2021/05/08 09:43:55;;;;;;;6.05;3.20;;;;;;;10.29;51.54;99187.98;2179843;81;21141;-80
2021/05/08 09:46:56;;;;;;;3.90;3.00;;;;;;;10.08;53.31;99178.87;2178586;81;21162;-79
2021/05/08 09:49:57;;;;;;;6.80;3.45;;;;;;;10.25;51.13;99176.61;2178620;81;21094;-80
2021/05/08 09:52:58;;;;;;;6.72;3.30;;;;;;;10.76;52.72;99175.36;2179448;81;21110;-80
2021/05/08 09:55:59;;;;;;;4.42;3.83;;;;;;;11.01;50.50;99175.73;2179854;81;21236;-80
2021/05/08 09:59:00;;;;;;;4.78;3.90;;;;;;;11.44;49.35;99172.92;2179766;81;21094;-80
2021/05/08 10:02:01;;;;;;;5.70;3.45;;;;;;;11.98;47.67;99174.50;2151303;82;21538;-79
2021/05/08 10:05:02;;;;;;;4.15;2.95;;;;;;;12.42;43.61;99167.57;2179482;82;21131;-81
2021/05/08 10:08:05;;;;;;;2.90;2.67;;;;;;;12.78;42.75;99162.21;2179433;81;21173;-80
2021/05/08 10:11:06;;;;;;;5.70;2.72;;;;;;;12.84;38.73;99169.69;2179854;81;21225;-80
2021/05/08 10:14:09;;;;;;;3.17;2.87;;;;;;;13.06;40.91;99171.63;2180000;81;21248;-81
2021/05/08 10:17:10;;;;;;;5.57;2.73;;;;;;;13.63;41.23;99166.31;2180129;81;21117;-80
2021/05/08 10:20:12;;;;;;;5.80;3.10;;;;;;;13.50;40.53;99155.76;2180064;81;21138;-81
2021/05/08 10:23:13;;;;;;;5.45;3.25;;;;;;;13.32;39.22;99159.16;2179923;81;21367;-81
2021/05/08 10:26:14;;;;;;;4.58;3.40;;;;;;;12.97;40.53;99168.03;2179963;81;21431;-80
2021/05/08 10:29:15;;;;;;;5.08;3.65;;;;;;;12.74;39.92;99187.50;2180089;81;21102;-80
2021/05/08 10:32:16;;;;;;;5.62;3.27;;;;;;;12.66;42.09;99178.27;2179626;81;21153;-80
2021/05/08 10:35:18;;;;;;;2.95;2.65;;;;;;;12.63;42.27;99182.17;2179896;81;21110;-81
2021/05/08 10:38:23;;;;;;;4.40;2.30;;;;;;;12.70;41.41;99183.98;2180005;81;21160;-80
2021/05/08 10:41:25;;;;;;;5.20;2.33;;;;;;;12.63;40.44;99169.51;2180054;82;21106;-80
2021/05/08 10:44:27;;;;;;;4.15;2.20;;;;;;;12.64;39.96;99180.43;2180124;81;21257;-81
2021/05/08 10:47:28;;;;;;;3.50;2.58;;;;;;;12.44;38.58;99172.39;2180026;81;21161;-79
2021/05/08 10:50:30;;;;;;;3.62;2.25;;;;;;;12.94;39.76;99167.58;2180055;81;21110;-81
2021/05/08 10:53:31;;;;;;;2.80;2.52;;;;;;;13.20;38.33;99165.64;2180161;81;21122;-80
2021/05/08 10:56:32;;;;;;;4.90;2.90;;;;;;;13.73;37.13;99151.92;2179999;81;21084;-80
2021/05/08 10:59:33;;;;;;;3.25;2.60;;;;;;;13.90;37.79;99162.96;2180060;81;21137;-80
2021/05/08 11:02:34;;;;;;;3.22;2.60;;;;;;;13.89;35.07;99159.90;2180059;81;21083;-82
2021/05/08 11:05:36;;;;;;;3.33;2.50;;;;;;;14.05;36.05;99161.26;2180135;81;21104;-81
2021/05/08 11:08:37;;;;;;;4.47;2.42;;;;;;;14.00;37.08;99162.55;2180027;81;21138;-81
2021/05/08 11:11:38;;;;;;;3.72;2.67;;;;;;;14.20;35.98;99149.48;2180202;81;21082;-80
2021/05/08 11:14:39;;;;;;;2.90;2.62;;;;;;;14.05;35.63;99156.89;2180416;81;21110;-80
2021/05/08 11:17:40;;;;;;;4.53;2.75;;;;;;;13.75;35.65;99169.43;2180568;81;21117;-82
2021/05/08 11:20:41;;;;;;;3.25;2.52;;;;;;;13.97;35.87;99159.92;2180402;81;21154;-80
2021/05/08 11:23:42;;;;;;;4.10;2.52;;;;;;;14.06;35.00;99163.01;2180609;81;21138;-79
2021/05/08 11:26:43;;;;;;;5.10;2.58;;;;;;;14.03;34.98;99162.56;2180694;81;21158;-81
2021/05/08 11:29:44;;;;;;;5.45;2.58;;;;;;;14.05;33.83;99153.38;2180491;81;21114;-79
2021/05/08 11:32:46;;;;;;;3.22;2.72;;;;;;;13.79;35.67;99151.52;2180455;81;21387;-80
2021/05/08 11:35:47;;;;;;;5.90;3.40;;;;;;;13.55;35.00;99169.34;2180573;82;21228;-80
2021/05/08 11:38:48;;;;;;;4.10;2.85;;;;;;;13.36;35.86;99160.93;2180536;81;21142;-81
2021/05/08 11:41:51;;;;;;;8.75;4.95;;;;;;;13.94;35.48;99168.66;2180861;81;21240;-82
2021/05/08 11:44:52;;;;;;;5.55;2.50;;;;;;;13.86;34.56;99170.34;2180960;81;21137;-80
2021/05/08 11:47:53;;;;;;;5.35;2.52;;;;;;;13.92;34.71;99166.47;2180692;81;21470;-80
2021/05/08 11:50:54;;;;;;;3.83;2.20;;;;;;;14.20;34.08;99167.86;2180724;81;21114;-79
2021/05/08 11:53:55;;;;;;;4.15;2.72;;;;;;;14.30;34.62;99174.89;2180293;81;21118;-78
2021/05/08 11:56:56;;;;;;;3.55;2.50;;;;;;;14.54;33.36;99163.58;2180201;81;21416;-79
2021/05/08 11:59:57;;;;;;;3.87;3.47;;;;;;;15.07;34.64;99163.60;2180276;81;21135;-79
2021/05/08 12:02:58;;;;;;;3.10;2.55;;;;;;;15.22;34.35;99161.39;2181990;81;21082;-81
2021/05/08 12:05:59;;;;;;;6.70;4.75;;;;;;;14.83;34.96;99164.49;2180943;81;21253;-80
2021/05/08 12:09:01;;;;;;;3.50;2.45;;;;;;;14.42;35.64;99166.16;2180959;81;21538;-80
2021/05/08 12:12:02;;;;;;;5.97;3.37;;;;;;;14.25;35.86;99167.00;2180354;82;21126;-81
2021/05/08 12:15:03;;;;;;;6.97;2.80;;;;;;;14.46;36.40;99159.62;2180737;81;21419;-82
2021/05/08 12:18:04;;;;;;;5.62;2.20;;;;;;;14.52;36.00;99158.32;2180760;81;21119;-82
2021/05/08 12:21:16;;;;;;;12.25;5.87;;;;;;;14.45;35.41;99157.88;2260573;77;22945;-80
2021/05/08 12:24:25;;;;;;;10.23;3.35;;;;;;;14.26;31.91;99148.18;2296894;77;22861;-82
2021/05/08 12:27:37;;;;;;;5.85;2.72;;;;;;;13.71;32.25;99147.55;2258841;79;22195;-80
2021/05/08 12:30:52;;;;;;;3.58;2.70;;;;;;;13.95;32.88;99155.98;2212234;79;22898;-80
2021/05/08 12:34:02;;;;;;;3.15;2.77;;;;;;;14.18;31.32;99151.23;2275603;77;22890;-80
2021/05/08 12:37:13;;;;;;;2.75;2.47;;;;;;;13.99;31.80;99148.99;2261152;77;22582;-80
2021/05/08 12:40:23;;;;;;;4.47;2.55;;;;;;;14.41;29.30;99148.20;2261100;77;22574;-79
2021/05/08 12:43:32;;;;;;;7.45;4.28;;;;;;;15.05;31.34;99153.53;2260802;77;22893;-81
2021/05/08 12:46:48;;;;;;;4.47;3.10;;;;;;;15.13;29.30;99141.69;2212576;79;22870;-80
2021/05/08 12:50:09;;;;;;;8.83;4.37;;;;;;;15.04;30.87;99144.33;2212687;79;22416;-82
2021/05/08 12:53:28;;;;;;;4.22;2.83;;;;;;;14.68;31.43;99146.50;2302081;77;23062;-81
2021/05/08 12:56:41;;;;;;;4.78;3.42;;;;;;;14.28;32.16;99141.19;2308300;76;22455;-82
2021/05/08 12:59:54;;;;;;;4.35;3.52;;;;;;;14.16;32.60;99147.28;2261478;77;23170;-80
2021/05/08 13:03:04;;;;;;;4.30;3.62;;;;;;;13.94;32.21;99141.55;2299171;77;22812;-79
2021/05/08 13:06:14;;;;;;;9.38;3.83;;;;;;;13.78;32.51;99164.20;2213380;79;22890;-80
2021/05/08 13:09:25;;;;;;;5.03;3.40;;;;;;;13.58;34.40;99147.49;2213363;79;22571;-82
2021/05/08 13:12:35;;;;;;;5.72;4.00;;;;;;;13.62;34.63;99153.19;2302119;77;22903;-82
2021/05/08 13:15:45;;;;;;;6.78;4.05;;;;;;;13.71;35.37;99147.98;2296931;77;22849;-80
2021/05/08 13:18:56;;;;;;;3.95;3.35;;;;;;;14.11;35.68;99156.91;2212915;79;22905;-80
2021/05/08 13:22:06;;;;;;;3.52;2.75;;;;;;;14.35;34.10;99150.39;2297461;77;22855;-81
2021/05/08 13:25:17;;;;;;;3.22;2.62;;;;;;;14.77;34.37;99143.91;2297078;77;22821;-81
2021/05/08 13:28:27;;;;;;;4.15;2.83;;;;;;;14.63;32.87;99150.01;2301669;77;23249;-81
2021/05/08 13:31:43;;;;;;;3.87;3.27;;;;;;;14.59;32.66;99160.08;2397744;74;22785;-80
2021/05/08 13:34:53;;;;;;;3.50;2.95;;;;;;;14.27;33.04;99160.00;2260714;77;22893;-79
2021/05/08 13:38:04;;;;;;;4.42;3.12;;;;;;;14.29;33.33;99152.12;2299314;77;22812;-81
2021/05/08 13:41:15;;;;;;;4.40;2.85;;;;;;;14.58;31.93;99164.02;2279714;77;28050;-81
2021/05/08 13:44:25;;;;;;;3.27;2.72;;;;;;;14.45;30.55;99153.94;2302252;77;22897;-80
2021/05/08 13:47:35;;;;;;;8.18;3.30;;;;;;;14.10;31.97;99139.84;2296913;77;22646;-81
2021/05/08 13:50:46;;;;;;;4.33;3.27;;;;;;;13.96;32.28;99140.67;2301734;77;22862;-81
2021/05/08 13:54:01;;;;;;;4.05;3.15;;;;;;;13.95;31.89;99149.42;2294469;77;22924;-81
2021/05/08 13:57:10;;;;;;;5.15;4.22;;;;;;;13.88;31.43;99156.83;2213077;79;22927;-80
2021/05/08 14:00:23;;;;;;;4.22;3.02;;;;;;;13.62;32.05;99161.94;2281722;78;23051;-80
2021/05/08 14:03:52;;;;;;;9.45;3.17;;;;;;;13.33;32.87;99172.28;2229113;78;23256;-81
2021/05/08 14:07:02;;;;;;;3.55;3.08;;;;;;;13.00;35.90;99179.84;2260701;77;23007;-82
2021/05/08 14:10:16;;;;;;;3.33;3.02;;;;;;;12.58;38.67;99198.70;2260906;77;22888;-82
2021/05/08 14:13:32;;;;;;;4.15;2.98;;;;;;;12.43;39.54;99183.30;2211762;79;22572;-81
2021/05/08 14:16:42;;;;;;;3.42;3.00;;;;;;;12.60;39.83;99176.03;2213005;79;22465;-80
2021/05/08 14:19:52;;;;;;;5.72;3.10;;;;;;;12.87;38.08;99176.26;2261923;79;22592;-80
2021/05/08 14:23:02;;;;;;;2.80;2.50;;;;;;;13.39;35.91;99160.95;2299243;77;22875;-79